Terminal Aerodrome Forecast
Issued by NWS Pueblo, CO

Home | Current Version | Previous Version | Text Only | Print | Product List | Glossary On
Versions: 1 2 3 4 5 6 7 8 9 10 11 12 13 14 15 16 17 18 19 20 21 22 23 24 25 26 27 28 29 30 31 32 33
000
FTUS45 KPUB 031121
TAFCOS
TAF
KCOS 031121Z 0312/0412 35007KT P6SM SCT120 BKN200
     FM031700 03012KT P6SM SCT120 SCT200
     FM032000 13012KT P6SM VCTS SCT080CB BKN140
     FM040300 35014KT P6SM SCT100 BKN140
     FM040800 36010KT P6SM SCT012 BKN050
     FM040900 02008KT P6SM VCSH SCT008 BKN012=

USA.gov is the U.S. government's official web portal to all federal, state and local government web resources and services.